Time;durP1;ratioP1;P1;durP2;ratioP2;P2;SDS_P1;SDS_P2;PMS_P1;PMS_P2;Temp;Humidity;BMP_temperature;BMP_pressure;BME280_temperature;BME280_humidity;BME280_pressure;Samples;Min_cycle;Max_cycle;Signal;HPM_P1;HPM_P2
2024/03/30 00:00:36;;;;;;;;;;;;;;;19.95;47.87;99638.00;2059292;28;6185;-66
2024/03/30 00:01:36;;;;;;;;;;;;;;;19.96;47.88;99644.50;2058926;28;2066;-66
2024/03/30 00:02:37;;;;;;;;;;;;;;;19.95;47.97;99640.88;2059259;28;2130;-66
2024/03/30 00:03:37;;;;;;;;;;;;;;;19.95;47.75;99652.38;2061097;28;1949;-66
2024/03/30 00:04:38;;;;;;;;;;;;;;;19.95;47.85;99646.63;2053394;28;1653;-66
2024/03/30 00:05:38;;;;;;;;;;;;;;;19.95;47.75;99649.50;2053252;28;1720;-66
2024/03/30 00:06:38;;;;;;;;;;;;;;;19.94;47.92;99650.91;2053525;28;1964;-67
2024/03/30 00:07:44;;;;;;;;;;;;;;;19.94;47.79;99648.03;2053568;28;1643;-66
2024/03/30 00:08:44;;;;;;;;;;;;;;;19.94;47.72;99648.03;2061475;28;1597;-66
2024/03/30 00:09:48;;;;;;;;;;;;;;;19.93;47.75;99640.84;2059428;28;2132;-66
2024/03/30 00:10:56;;;;;;;;;;;;;;;19.94;47.78;99648.03;2051154;28;2134;-66
2024/03/30 00:11:56;;;;;;;;;;;;;;;19.94;47.90;99647.31;2050185;28;1720;-67
2024/03/30 00:12:58;;;;;;;;;;;;;;;19.94;47.95;99642.28;2052239;28;1628;-66
2024/03/30 00:13:58;;;;;;;;;;;;;;;19.94;47.71;99644.44;2053648;28;1724;-66
2024/03/30 00:14:59;;;;;;;;;;;;;;;19.93;47.89;99646.56;2059352;28;2099;-66
2024/03/30 00:16:06;;;;;;;;;;;;;;;19.95;47.74;99643.75;2053956;28;2080;-67
2024/03/30 00:17:07;;;;;;;;;;;;;;;19.95;47.76;99643.75;2045944;28;1947;-66
2024/03/30 00:18:08;;;;;;;;;;;;;;;19.93;47.74;99643.69;2054099;28;1648;-66
2024/03/30 00:19:09;;;;;;;;;;;;;;;19.93;47.67;99646.56;2053333;28;2172;-66
2024/03/30 00:20:09;;;;;;;;;;;;;;;19.93;47.83;99657.31;2060232;28;1890;-66
2024/03/30 00:21:14;;;;;;;;;;;;;;;19.92;47.79;99653.72;2057555;28;2543;-66
2024/03/30 00:22:14;;;;;;;;;;;;;;;19.91;47.91;99655.13;2061441;28;1663;-66
2024/03/30 00:23:14;;;;;;;;;;;;;;;19.92;47.72;99662.34;2061152;28;1910;-66
2024/03/30 00:24:15;;;;;;;;;;;;;;;19.92;48.07;99650.84;2052592;28;2110;-66
2024/03/30 00:25:16;;;;;;;;;;;;;;;19.93;47.77;99651.56;2050003;28;2179;-66
2024/03/30 00:26:16;;;;;;;;;;;;;;;19.92;47.83;99645.09;2051059;28;2470;-66
2024/03/30 00:27:16;;;;;;;;;;;;;;;19.92;47.77;99650.84;2056790;28;2153;-66
2024/03/30 00:28:17;;;;;;;;;;;;;;;19.92;47.75;99645.09;2059290;28;2571;-66
2024/03/30 00:29:17;;;;;;;;;;;;;;;19.92;47.82;99650.84;2052045;28;2139;-66
2024/03/30 00:30:19;;;;;;;;;;;;;;;19.91;47.94;99655.13;2051102;28;6251;-67
2024/03/30 00:31:23;;;;;;;;;;;;;;;19.92;47.99;99650.13;2062251;28;1737;-66
2024/03/30 00:32:24;;;;;;;;;;;;;;;19.91;47.82;99648.66;2059593;28;1790;-67
2024/03/30 00:33:24;;;;;;;;;;;;;;;19.91;47.95;99646.50;2059916;28;1903;-66
2024/03/30 00:34:24;;;;;;;;;;;;;;;19.90;47.84;99647.91;2059385;28;2495;-66
2024/03/30 00:35:25;;;;;;;;;;;;;;;19.90;47.86;99647.91;2049354;28;2275;-66
2024/03/30 00:36:25;;;;;;;;;;;;;;;19.91;47.83;99637.91;2048507;28;2234;-66
2024/03/30 00:37:25;;;;;;;;;;;;;;;19.91;47.80;99637.91;2051839;28;2064;-66
2024/03/30 00:38:26;;;;;;;;;;;;;;;19.90;47.89;99639.28;2062126;28;1681;-67
2024/03/30 00:39:26;;;;;;;;;;;;;;;19.90;47.80;99639.28;2052804;28;2095;-66
2024/03/30 00:40:27;;;;;;;;;;;;;;;19.90;47.80;99630.66;2051811;28;1726;-66
2024/03/30 00:41:27;;;;;;;;;;;;;;;19.90;47.85;99629.94;2060099;28;1726;-67
2024/03/30 00:42:27;;;;;;;;;;;;;;;19.90;47.90;99627.06;2052659;28;2077;-66
2024/03/30 00:43:28;;;;;;;;;;;;;;;19.90;47.95;99624.19;2049752;28;2269;-67
2024/03/30 00:44:28;;;;;;;;;;;;;;;19.89;47.91;99617.72;2057223;28;2138;-66
2024/03/30 00:45:29;;;;;;;;;;;;;;;19.89;47.79;99617.72;2053651;28;1651;-66
2024/03/30 00:46:29;;;;;;;;;;;;;;;19.89;47.89;99614.84;2053022;28;1656;-67
2024/03/30 00:47:30;;;;;;;;;;;;;;;19.89;47.91;99606.22;2059267;28;2304;-66
2024/03/30 00:48:31;;;;;;;;;;;;;;;19.89;47.94;99606.22;2059402;28;2208;-66
2024/03/30 00:49:31;;;;;;;;;;;;;;;19.89;47.86;99606.22;2052514;28;2079;-66
2024/03/30 00:50:31;;;;;;;;;;;;;;;19.90;47.74;99606.97;2061731;28;2353;-67
2024/03/30 00:51:32;;;;;;;;;;;;;;;19.89;47.75;99609.09;2052502;28;2191;-66
2024/03/30 00:52:32;;;;;;;;;;;;;;;19.90;47.78;99607.69;2058002;28;2127;-66
2024/03/30 00:53:33;;;;;;;;;;;;;;;19.89;47.71;99611.97;2056333;28;2209;-66
2024/03/30 00:54:33;;;;;;;;;;;;;;;19.89;47.70;99606.22;2049464;28;2154;-67
2024/03/30 00:55:33;;;;;;;;;;;;;;;19.89;47.89;99609.09;2049837;28;2496;-67
2024/03/30 00:56:34;;;;;;;;;;;;;;;19.88;47.78;99613.38;2059575;28;2121;-66
2024/03/30 00:57:37;;;;;;;;;;;;;;;19.89;47.86;99611.97;2056055;28;2153;-66
2024/03/30 00:58:38;;;;;;;;;;;;;;;19.90;47.86;99618.44;2058665;28;2485;-66
2024/03/30 00:59:40;;;;;;;;;;;;;;;19.89;47.92;99614.84;2052590;28;1979;-67
2024/03/30 01:00:40;;;;;;;;;;;;;;;19.89;47.75;99614.84;2059861;28;6029;-66
2024/03/30 01:01:41;;;;;;;;;;;;;;;19.88;47.88;99607.63;2052299;28;2116;-67
2024/03/30 01:02:42;;;;;;;;;;;;;;;19.89;47.78;99617.72;2051651;28;2131;-66
2024/03/30 01:03:42;;;;;;;;;;;;;;;19.89;47.83;99611.97;2051503;28;2519;-66
2024/03/30 01:04:42;;;;;;;;;;;;;;;19.88;47.79;99601.88;2053042;28;3271;-66
2024/03/30 01:05:43;;;;;;;;;;;;;;;19.88;47.72;99601.88;2053472;28;1715;-66
2024/03/30 01:06:43;;;;;;;;;;;;;;;19.87;47.68;99603.31;2052929;28;1680;-66
2024/03/30 01:07:44;;;;;;;;;;;;;;;19.87;47.80;99600.44;2060710;28;1779;-66
2024/03/30 01:08:44;;;;;;;;;;;;;;;19.88;47.88;99599.00;2061450;28;1667;-67
2024/03/30 01:09:45;;;;;;;;;;;;;;;19.88;47.92;99599.00;2051096;28;2064;-66
2024/03/30 01:10:45;;;;;;;;;;;;;;;19.87;47.75;99597.56;2059895;28;2103;-66
2024/03/30 01:11:46;;;;;;;;;;;;;;;19.87;47.86;99603.31;2058353;28;2122;-66
2024/03/30 01:12:46;;;;;;;;;;;;;;;19.86;47.77;99596.84;2050876;28;2232;-67
2024/03/30 01:13:46;;;;;;;;;;;;;;;19.86;47.85;99602.56;2051808;28;2036;-66
2024/03/30 01:14:47;;;;;;;;;;;;;;;19.86;47.83;99602.56;2059842;28;1674;-66
2024/03/30 01:15:47;;;;;;;;;;;;;;;19.85;47.78;99589.59;2061655;28;1572;-66
2024/03/30 01:16:48;;;;;;;;;;;;;;;19.87;47.90;99588.94;2053628;28;1720;-66
2024/03/30 01:17:49;;;;;;;;;;;;;;;19.85;47.90;99588.88;2050915;28;2010;-67
2024/03/30 01:18:49;;;;;;;;;;;;;;;19.85;47.79;99583.13;2052359;28;1656;-66
2024/03/30 01:19:50;;;;;;;;;;;;;;;19.85;47.84;99586.00;2056250;28;2123;-66
2024/03/30 01:20:51;;;;;;;;;;;;;;;19.84;47.88;99587.44;2057390;28;2217;-66
2024/03/30 01:21:51;;;;;;;;;;;;;;;19.85;47.89;99586.00;2050019;28;2152;-67
2024/03/30 01:22:52;;;;;;;;;;;;;;;19.84;47.91;99593.91;2051146;28;2153;-66
2024/03/30 01:23:52;;;;;;;;;;;;;;;19.85;47.79;99588.88;2050755;28;2033;-66
2024/03/30 01:24:53;;;;;;;;;;;;;;;19.84;47.95;99591.03;2053724;28;1622;-67
2024/03/30 01:25:53;;;;;;;;;;;;;;;19.84;47.79;99593.91;2060219;28;2032;-66
2024/03/30 01:26:56;;;;;;;;;;;;;;;19.84;47.77;99585.28;2059131;28;2642;-66
2024/03/30 01:27:58;;;;;;;;;;;;;;;19.84;47.79;99587.44;2061254;28;1944;-66
2024/03/30 01:29:00;;;;;;;;;;;;;;;19.84;47.97;99596.03;2059116;28;2165;-66
2024/03/30 01:30:05;;;;;;;;;;;;;;;19.83;47.80;99591.69;2056313;28;6338;-66
2024/03/30 01:31:05;;;;;;;;;;;;;;;19.83;47.93;99594.56;2058940;28;2094;-66
2024/03/30 01:32:06;;;;;;;;;;;;;;;19.83;47.77;99600.31;2050834;28;2126;-66
2024/03/30 01:33:06;;;;;;;;;;;;;;;19.83;47.91;99597.44;2053380;28;1671;-66
2024/03/30 01:34:07;;;;;;;;;;;;;;;19.83;47.80;99592.41;2051307;28;1725;-66
2024/03/30 01:35:07;;;;;;;;;;;;;;;19.82;47.90;99596.72;2052992;28;1628;-66
2024/03/30 01:36:08;;;;;;;;;;;;;;;19.82;47.82;99590.25;2060845;28;1606;-66
2024/03/30 01:37:08;;;;;;;;;;;;;;;19.82;47.80;99590.97;2060631;28;1647;-66
2024/03/30 01:38:09;;;;;;;;;;;;;;;19.82;47.97;99590.25;2050159;28;1899;-66
2024/03/30 01:39:09;;;;;;;;;;;;;;;19.82;47.86;99598.84;2049541;28;2169;-66
2024/03/30 01:40:09;;;;;;;;;;;;;;;19.82;47.82;99598.84;2050445;28;2383;-66
2024/03/30 01:41:10;;;;;;;;;;;;;;;19.82;47.77;99601.72;2062030;28;1722;-66
2024/03/30 01:42:10;;;;;;;;;;;;;;;19.81;47.87;99606.75;2058505;28;2194;-67
2024/03/30 01:43:11;;;;;;;;;;;;;;;19.82;47.84;99604.59;2049243;28;2159;-66
2024/03/30 01:44:12;;;;;;;;;;;;;;;19.81;47.77;99600.25;2048729;28;2169;-67
2024/03/30 01:45:12;;;;;;;;;;;;;;;19.81;47.92;99603.88;2049667;28;2248;-67
2024/03/30 01:46:12;;;;;;;;;;;;;;;19.81;47.86;99617.47;2053481;28;1672;-66
2024/03/30 01:47:13;;;;;;;;;;;;;;;19.81;47.78;99608.88;2053352;28;1688;-66
2024/03/30 01:48:13;;;;;;;;;;;;;;;19.80;47.78;99590.91;2051413;28;1920;-66
2024/03/30 01:49:14;;;;;;;;;;;;;;;19.80;47.82;99604.53;2052576;28;1704;-66
2024/03/30 01:50:15;;;;;;;;;;;;;;;19.80;47.90;99599.53;2059210;28;2070;-66
2024/03/30 01:51:15;;;;;;;;;;;;;;;19.79;47.91;99603.06;2058560;28;1667;-66
2024/03/30 01:52:19;;;;;;;;;;;;;;;19.81;47.74;99606.00;2050378;28;2183;-66
2024/03/30 01:53:21;;;;;;;;;;;;;;;19.79;47.83;99598.06;2051948;28;2179;-66
2024/03/30 01:54:22;;;;;;;;;;;;;;;19.80;47.67;99598.78;2048087;28;2572;-66
2024/03/30 01:55:22;;;;;;;;;;;;;;;19.80;47.70;99604.53;2060153;28;2012;-67
2024/03/30 01:56:23;;;;;;;;;;;;;;;19.80;47.86;99598.78;2059610;28;1677;-66
2024/03/30 01:57:24;;;;;;;;;;;;;;;19.80;47.67;99601.66;2058959;28;1660;-66
2024/03/30 01:58:25;;;;;;;;;;;;;;;19.79;47.83;99591.56;2055565;28;2035;-66
2024/03/30 01:59:25;;;;;;;;;;;;;;;19.79;47.72;99591.56;2052859;28;1616;-67
2024/03/30 02:00:26;;;;;;;;;;;;;;;19.78;47.82;99593.72;2053816;28;6261;-67
2024/03/30 02:01:26;;;;;;;;;;;;;;;19.78;47.88;99590.84;2059289;28;1731;-66
2024/03/30 02:02:27;;;;;;;;;;;;;;;19.78;47.75;99595.84;2050193;28;2111;-67
2024/03/30 02:03:27;;;;;;;;;;;;;;;19.78;47.81;99590.13;2060644;28;1910;-66
2024/03/30 02:04:29;;;;;;;;;;;;;;;19.78;47.81;99598.72;2059225;28;2135;-66
2024/03/30 02:05:31;;;;;;;;;;;;;;;19.78;47.89;99598.72;2051440;28;1899;-67
2024/03/30 02:06:31;;;;;;;;;;;;;;;19.78;47.76;99599.47;2060168;28;1717;-66
2024/03/30 02:07:32;;;;;;;;;;;;;;;19.77;47.82;99594.38;2068549;28;1657;-66
2024/03/30 02:08:34;;;;;;;;;;;;;;;19.77;47.79;99595.13;2060900;28;1644;-66
2024/03/30 02:09:34;;;;;;;;;;;;;;;19.77;47.70;99594.38;2049039;28;2072;-66
2024/03/30 02:10:35;;;;;;;;;;;;;;;19.77;47.70;99600.13;2049469;28;2152;-66
2024/03/30 02:11:37;;;;;;;;;;;;;;;19.77;47.68;99588.63;2052134;28;1653;-66
2024/03/30 02:12:38;;;;;;;;;;;;;;;19.77;47.88;99586.53;2059177;28;2039;-66
2024/03/30 02:13:38;;;;;;;;;;;;;;;19.77;47.79;99588.63;2057656;28;2036;-66
2024/03/30 02:14:38;;;;;;;;;;;;;;;19.76;47.73;99587.19;2052452;28;1656;-66
2024/03/30 02:15:39;;;;;;;;;;;;;;;19.76;47.91;99584.31;2052431;28;1705;-67
2024/03/30 02:16:40;;;;;;;;;;;;;;;19.76;47.75;99587.19;2053130;28;1695;-66
2024/03/30 02:17:40;;;;;;;;;;;;;;;19.76;47.68;99587.19;2052791;28;2158;-66
2024/03/30 02:18:41;;;;;;;;;;;;;;;19.76;47.89;99587.19;2052944;28;1699;-66
2024/03/30 02:19:45;;;;;;;;;;;;;;;19.74;47.71;99582.09;2052779;28;1593;-66
2024/03/30 02:20:45;;;;;;;;;;;;;;;19.74;47.81;99581.38;2054786;28;1651;-66
2024/03/30 02:21:46;;;;;;;;;;;;;;;19.75;47.67;99577.13;2062395;28;2290;-66
2024/03/30 02:22:52;;;;;;;;;;;;;;;19.75;47.85;99586.47;2059257;28;2136;-67
2024/03/30 02:23:53;;;;;;;;;;;;;;;19.74;47.78;99584.97;2051469;28;2222;-67
2024/03/30 02:24:53;;;;;;;;;;;;;;;19.74;47.84;99579.22;2054694;28;1632;-66
2024/03/30 02:25:57;;;;;;;;;;;;;;;19.75;47.72;99582.84;2062300;28;1583;-66
2024/03/30 02:26:58;;;;;;;;;;;;;;;19.73;47.74;99583.53;2055185;28;1597;-66
2024/03/30 02:27:58;;;;;;;;;;;;;;;19.74;47.71;99581.38;2051783;28;2076;-66
2024/03/30 02:29:02;;;;;;;;;;;;;;;19.74;47.80;99578.50;2051455;28;1711;-66
2024/03/30 02:30:03;;;;;;;;;;;;;;;19.74;47.79;99590.72;2059280;28;6011;-66
2024/03/30 02:31:04;;;;;;;;;;;;;;;19.73;47.69;99589.28;2060270;28;1607;-67
2024/03/30 02:32:05;;;;;;;;;;;;;;;19.74;47.73;99590.00;2052961;28;1648;-67
2024/03/30 02:33:06;;;;;;;;;;;;;;;19.74;47.74;99587.13;2051139;28;2127;-67
2024/03/30 02:34:06;;;;;;;;;;;;;;;19.73;47.73;99582.78;2053831;28;2034;-66
2024/03/30 02:35:07;;;;;;;;;;;;;;;19.73;47.85;99589.28;2053596;28;1711;-67
2024/03/30 02:36:07;;;;;;;;;;;;;;;19.73;47.77;99582.78;2061866;28;2092;-66
2024/03/30 02:37:08;;;;;;;;;;;;;;;19.72;47.75;99584.91;2059492;28;2213;-66
2024/03/30 02:38:09;;;;;;;;;;;;;;;19.72;47.59;99582.03;2058527;28;2149;-66
2024/03/30 02:39:09;;;;;;;;;;;;;;;19.73;47.79;99585.66;2059332;28;2484;-66
2024/03/30 02:40:10;;;;;;;;;;;;;;;19.73;47.88;99588.53;2060375;28;2020;-66
2024/03/30 02:41:10;;;;;;;;;;;;;;;19.72;47.73;99576.31;2062089;28;1690;-67
2024/03/30 02:42:11;;;;;;;;;;;;;;;19.72;47.75;99581.31;2061681;28;1825;-66
2024/03/30 02:43:11;;;;;;;;;;;;;;;19.72;47.73;99569.81;2053471;28;1935;-66
2024/03/30 02:44:11;;;;;;;;;;;;;;;19.72;47.72;99566.97;2054186;28;1667;-66
2024/03/30 02:45:12;;;;;;;;;;;;;;;19.72;47.67;99566.97;2053356;28;1684;-67
2024/03/30 02:46:13;;;;;;;;;;;;;;;19.72;47.75;99578.44;2057436;28;2079;-66
2024/03/30 02:47:13;;;;;;;;;;;;;;;19.72;47.66;99569.81;2059918;28;2125;-66
2024/03/30 02:48:13;;;;;;;;;;;;;;;19.71;47.72;99568.38;2052052;28;2361;-66
2024/03/30 02:49:14;;;;;;;;;;;;;;;19.71;47.72;99574.13;2062255;28;1697;-66
2024/03/30 02:50:14;;;;;;;;;;;;;;;19.71;47.57;99568.38;2052591;28;2005;-66
2024/03/30 02:51:15;;;;;;;;;;;;;;;19.70;47.59;99566.91;2053947;28;1597;-68
2024/03/30 02:52:15;;;;;;;;;;;;;;;19.70;47.65;99564.03;2052402;28;2088;-66
2024/03/30 02:53:16;;;;;;;;;;;;;;;19.70;47.77;99576.25;2061912;28;1626;-67
2024/03/30 02:54:16;;;;;;;;;;;;;;;19.69;47.65;99569.03;2058898;28;1976;-66
2024/03/30 02:55:16;;;;;;;;;;;;;;;19.68;47.64;99579.03;2060479;28;1559;-66
2024/03/30 02:56:17;;;;;;;;;;;;;;;19.69;47.62;99580.53;2059284;28;2147;-66
2024/03/30 02:57:17;;;;;;;;;;;;;;;19.69;47.79;99579.81;2050646;28;2100;-66
2024/03/30 02:58:18;;;;;;;;;;;;;;;19.69;47.64;99583.41;2054403;28;1664;-66
2024/03/30 02:59:18;;;;;;;;;;;;;;;19.70;47.78;99584.13;2053979;28;1703;-66
2024/03/30 03:00:18;;;;;;;;;;;;;;;19.69;47.67;99585.53;2053092;28;6163;-66
2024/03/30 03:01:19;;;;;;;;;;;;;;;19.70;47.76;99581.25;2052980;28;1657;-66
2024/03/30 03:02:19;;;;;;;;;;;;;;;19.67;47.69;99578.28;2062306;28;2476;-67
2024/03/30 03:03:20;;;;;;;;;;;;;;;19.69;47.61;99588.41;2061189;28;1910;-66
2024/03/30 03:04:20;;;;;;;;;;;;;;;19.69;47.70;99579.81;2053402;28;1597;-66
2024/03/30 03:05:20;;;;;;;;;;;;;;;19.68;47.65;99581.91;2051846;28;2225;-66
2024/03/30 03:06:21;;;;;;;;;;;;;;;19.69;47.75;99582.69;2050684;28;2204;-66
2024/03/30 03:07:21;;;;;;;;;;;;;;;19.68;47.71;99590.53;2052549;28;2103;-66
2024/03/30 03:08:24;;;;;;;;;;;;;;;19.67;47.68;99592.66;2054544;28;2356;-67
2024/03/30 03:09:25;;;;;;;;;;;;;;;19.67;47.79;99592.66;2054857;28;1739;-66
2024/03/30 03:10:25;;;;;;;;;;;;;;;19.67;47.71;99586.91;2052191;28;2135;-67
2024/03/30 03:11:25;;;;;;;;;;;;;;;19.67;47.75;99591.94;2059489;28;1699;-67
2024/03/30 03:12:26;;;;;;;;;;;;;;;19.66;47.68;99585.47;2069811;28;1699;-66
2024/03/30 03:13:27;;;;;;;;;;;;;;;19.66;47.73;99587.59;2062345;28;1732;-66
2024/03/30 03:14:30;;;;;;;;;;;;;;;19.66;47.73;99585.47;2052695;28;1985;-67
2024/03/30 03:15:30;;;;;;;;;;;;;;;19.66;47.54;99585.47;2054802;28;1636;-67
2024/03/30 03:16:31;;;;;;;;;;;;;;;19.66;47.62;99584.72;2052330;28;2017;-66
2024/03/30 03:17:31;;;;;;;;;;;;;;;19.65;47.74;99583.25;2059635;28;2142;-66
2024/03/30 03:18:32;;;;;;;;;;;;;;;19.65;47.63;99578.25;2059481;28;2204;-66
2024/03/30 03:19:32;;;;;;;;;;;;;;;19.65;47.62;99578.25;2053077;28;2273;-66
2024/03/30 03:20:32;;;;;;;;;;;;;;;19.65;47.73;99578.25;2051891;28;2143;-67
2024/03/30 03:21:33;;;;;;;;;;;;;;;19.64;47.66;99568.16;2051898;28;2162;-67
2024/03/30 03:22:34;;;;;;;;;;;;;;;19.63;47.68;99571.69;2059042;28;2202;-66
2024/03/30 03:23:34;;;;;;;;;;;;;;;19.65;47.74;99574.63;2057306;28;2440;-66
2024/03/30 03:24:36;;;;;;;;;;;;;;;19.65;47.70;99583.25;2051154;28;2646;-66
2024/03/30 03:25:37;;;;;;;;;;;;;;;19.64;47.92;99576.06;2059347;28;2110;-66
2024/03/30 03:26:37;;;;;;;;;;;;;;;19.63;47.60;99578.19;2059824;28;2713;-66
2024/03/30 03:27:37;;;;;;;;;;;;;;;19.63;47.69;99575.31;2059974;28;2160;-66
2024/03/30 03:28:38;;;;;;;;;;;;;;;19.64;47.56;99576.06;2057959;28;2131;-67
2024/03/30 03:29:38;;;;;;;;;;;;;;;19.63;47.67;99575.31;2052565;28;2088;-66
2024/03/30 03:30:39;;;;;;;;;;;;;;;19.63;47.74;99569.59;2059306;28;6260;-66
2024/03/30 03:31:39;;;;;;;;;;;;;;;19.63;47.69;99569.59;2057638;28;2195;-67
2024/03/30 03:32:40;;;;;;;;;;;;;;;19.62;47.70;99568.09;2051095;28;2080;-67
2024/03/30 03:33:40;;;;;;;;;;;;;;;19.62;47.74;99568.09;2051133;28;2323;-66
2024/03/30 03:34:40;;;;;;;;;;;;;;;19.62;47.64;99573.84;2052132;28;2162;-67
2024/03/30 03:35:41;;;;;;;;;;;;;;;19.63;47.66;99569.59;2049679;28;2171;-66
2024/03/30 03:36:41;;;;;;;;;;;;;;;19.62;47.63;99565.22;2049974;28;2249;-66
2024/03/30 03:37:43;;;;;;;;;;;;;;;19.61;47.71;99566.66;2051680;28;2226;-67
2024/03/30 03:38:43;;;;;;;;;;;;;;;19.61;47.59;99566.66;2051880;28;2126;-67
2024/03/30 03:39:43;;;;;;;;;;;;;;;19.62;47.66;99567.38;2051779;28;2125;-66
2024/03/30 03:40:44;;;;;;;;;;;;;;;19.62;47.68;99573.84;2059453;28;2122;-66
2024/03/30 03:41:44;;;;;;;;;;;;;;;19.61;47.70;99566.66;2058688;28;2143;-66
2024/03/30 03:42:45;;;;;;;;;;;;;;;19.61;47.66;99563.78;2049912;28;2163;-67
2024/03/30 03:43:45;;;;;;;;;;;;;;;19.61;47.66;99560.91;2059803;28;2156;-67
2024/03/30 03:44:45;;;;;;;;;;;;;;;19.62;47.66;99555.88;2051089;28;2389;-67
2024/03/30 03:45:46;;;;;;;;;;;;;;;19.61;47.70;99554.44;2052319;28;2123;-66
2024/03/30 03:46:47;;;;;;;;;;;;;;;19.62;47.64;99558.75;2051532;28;2225;-66
2024/03/30 03:47:47;;;;;;;;;;;;;;;19.61;47.54;99549.44;2051665;28;2328;-66
2024/03/30 03:48:47;;;;;;;;;;;;;;;19.61;47.62;99552.28;2050998;28;2269;-66
2024/03/30 03:49:48;;;;;;;;;;;;;;;19.61;47.59;99549.44;2059947;28;2472;-66
2024/03/30 03:50:48;;;;;;;;;;;;;;;19.63;47.62;99552.34;2057596;28;2143;-67
2024/03/30 03:51:48;;;;;;;;;;;;;;;19.63;47.68;99549.47;2052272;28;2523;-66
2024/03/30 03:52:49;;;;;;;;;;;;;;;19.62;47.57;99556.63;2050549;28;2306;-66
2024/03/30 03:53:50;;;;;;;;;;;;;;;19.63;47.54;99552.34;2050652;28;2135;-66
2024/03/30 03:54:50;;;;;;;;;;;;;;;19.64;47.65;99556.69;2049866;28;2725;-66
2024/03/30 03:55:50;;;;;;;;;;;;;;;19.65;47.49;99551.66;2059308;28;2305;-67
2024/03/30 03:56:51;;;;;;;;;;;;;;;19.65;47.52;99552.41;2051284;28;2330;-67
2024/03/30 03:57:51;;;;;;;;;;;;;;;19.65;47.54;99549.53;2058268;28;2221;-67
2024/03/30 03:58:52;;;;;;;;;;;;;;;19.66;47.48;99564.63;2058968;28;2155;-66
2024/03/30 03:59:52;;;;;;;;;;;;;;;19.67;47.50;99569.69;2050875;28;2201;-67
2024/03/30 04:00:52;;;;;;;;;;;;;;;19.68;47.46;99564.69;2059252;28;6288;-66
2024/03/30 04:01:53;;;;;;;;;;;;;;;19.69;47.51;99568.31;2057898;28;2204;-66
2024/03/30 04:02:53;;;;;;;;;;;;;;;19.70;47.47;99572.66;2050368;28;2152;-66
2024/03/30 04:03:54;;;;;;;;;;;;;;;19.71;47.45;99574.13;2050451;28;2134;-66
2024/03/30 04:04:54;;;;;;;;;;;;;;;19.72;47.53;99572.69;2058782;28;2130;-66
2024/03/30 04:05:54;;;;;;;;;;;;;;;19.74;47.53;99578.50;2058123;28;2113;-67
2024/03/30 04:06:57;;;;;;;;;;;;;;;19.72;47.58;99582.03;2050133;28;2150;-66
2024/03/30 04:07:57;;;;;;;;;;;;;;;19.72;47.56;99572.69;2052068;28;2175;-66
2024/03/30 04:08:58;;;;;;;;;;;;;;;19.73;47.56;99583.53;2051690;28;2096;-67
2024/03/30 04:09:58;;;;;;;;;;;;;;;19.74;47.69;99578.50;2051523;28;2130;-66
2024/03/30 04:11:02;;;;;;;;;;;;;;;19.73;47.65;99580.66;2050737;28;2175;-66
2024/03/30 04:12:02;;;;;;;;;;;;;;;19.73;47.68;99583.53;2051644;28;2194;-66
2024/03/30 04:13:03;;;;;;;;;;;;;;;19.73;47.70;99583.53;2060418;28;2468;-66
2024/03/30 04:14:03;;;;;;;;;;;;;;;19.73;47.60;99577.78;2061369;28;1835;-67
2024/03/30 04:15:04;;;;;;;;;;;;;;;19.74;47.59;99575.63;2052608;28;1802;-67
2024/03/30 04:16:05;;;;;;;;;;;;;;;19.73;47.57;99568.44;2052659;28;1736;-66
2024/03/30 04:17:05;;;;;;;;;;;;;;;19.74;47.75;99575.63;2052530;28;2153;-67
2024/03/30 04:18:06;;;;;;;;;;;;;;;19.73;47.61;99571.31;2051431;28;2142;-61
2024/03/30 04:19:06;;;;;;;;;;;;;;;19.73;47.68;99577.06;2059094;28;2237;-74
2024/03/30 04:20:06;;;;;;;;;;;;;;;19.73;47.78;99572.03;2058060;28;2352;-66
2024/03/30 04:21:08;;;;;;;;;;;;;;;19.72;47.63;99575.56;2059436;28;2091;-66
2024/03/30 04:22:09;;;;;;;;;;;;;;;19.73;47.70;99577.06;2053284;28;2120;-66
2024/03/30 04:23:09;;;;;;;;;;;;;;;19.74;47.82;99569.88;2051411;28;2052;-66
2024/03/30 04:24:11;;;;;;;;;;;;;;;19.74;47.68;99579.22;2050457;28;2174;-66
2024/03/30 04:25:11;;;;;;;;;;;;;;;19.74;47.75;99573.50;2052118;28;2270;-66
2024/03/30 04:26:14;;;;;;;;;;;;;;;19.75;47.76;99580.00;2061286;28;1591;-66
2024/03/30 04:27:14;;;;;;;;;;;;;;;19.76;47.79;99581.44;2061215;28;1604;-66
2024/03/30 04:28:15;;;;;;;;;;;;;;;19.77;47.81;99582.88;2051583;28;2175;-66
2024/03/30 04:29:15;;;;;;;;;;;;;;;19.77;47.91;99582.88;2051368;28;2182;-65
2024/03/30 04:30:17;;;;;;;;;;;;;;;19.77;47.88;99582.88;2053084;28;6174;-65
2024/03/30 04:31:17;;;;;;;;;;;;;;;19.79;47.93;99574.34;2043043;28;2221;-66
2024/03/30 04:32:18;;;;;;;;;;;;;;;19.76;48.01;99576.41;2042146;28;2410;-65
2024/03/30 04:33:18;;;;;;;;;;;;;;;19.81;47.84;99583.00;2043179;28;2188;-66
2024/03/30 04:34:18;;;;;;;;;;;;;;;19.81;48.06;99580.13;2045925;28;2169;-66
2024/03/30 04:35:19;;;;;;;;;;;;;;;19.78;47.90;99578.63;2043961;28;2248;-66
2024/03/30 04:36:19;;;;;;;;;;;;;;;19.78;47.96;99578.63;2048150;28;1628;-66
2024/03/30 04:37:20;;;;;;;;;;;;;;;19.78;47.94;99578.63;2045829;28;1669;-66
2024/03/30 04:38:20;;;;;;;;;;;;;;;19.80;47.96;99587.31;2044753;28;1665;-66
2024/03/30 04:39:20;;;;;;;;;;;;;;;19.79;47.94;99574.34;2044506;28;1771;-66
2024/03/30 04:40:26;;;;;;;;;;;;;;;19.79;48.17;99575.09;2046279;28;2130;-66
2024/03/30 04:41:26;;;;;;;;;;;;;;;19.79;48.01;99585.81;2041166;28;2097;-66
2024/03/30 04:42:27;;;;;;;;;;;;;;;19.80;48.11;99581.56;2049695;28;2175;-66
2024/03/30 04:43:29;;;;;;;;;;;;;;;19.79;48.03;99585.81;2050916;28;2213;-66
2024/03/30 04:44:29;;;;;;;;;;;;;;;19.79;48.14;99582.94;2043187;28;2669;-66
2024/03/30 04:45:29;;;;;;;;;;;;;;;19.79;48.16;99574.34;2044444;28;2172;-66
2024/03/30 04:46:30;;;;;;;;;;;;;;;19.78;48.13;99576.47;2051843;28;2214;-66
2024/03/30 04:47:30;;;;;;;;;;;;;;;19.79;48.10;99585.81;2049908;28;2075;-66
2024/03/30 04:48:31;;;;;;;;;;;;;;;19.78;48.17;99578.63;2041364;28;2181;-66
2024/03/30 04:49:31;;;;;;;;;;;;;;;19.78;48.23;99575.75;2042772;28;2128;-66
2024/03/30 04:50:32;;;;;;;;;;;;;;;19.77;48.08;99580.03;2043939;28;2128;-66
2024/03/30 04:51:32;;;;;;;;;;;;;;;19.77;48.17;99582.88;2042293;28;2280;-66
2024/03/30 04:52:32;;;;;;;;;;;;;;;19.77;48.04;99577.16;2041491;28;2145;-66
2024/03/30 04:53:33;;;;;;;;;;;;;;;19.78;48.08;99578.63;2050492;28;2182;-66
2024/03/30 04:54:34;;;;;;;;;;;;;;;19.77;48.26;99574.28;2050161;28;2167;-66
2024/03/30 04:55:35;;;;;;;;;;;;;;;19.77;48.14;99582.88;2041934;28;2342;-66
2024/03/30 04:56:35;;;;;;;;;;;;;;;19.76;48.30;99582.16;2041289;28;2149;-66
2024/03/30 04:57:36;;;;;;;;;;;;;;;19.75;48.28;99580.72;2043448;28;2171;-66
2024/03/30 04:58:36;;;;;;;;;;;;;;;19.76;48.33;99581.44;2039924;28;2086;-66
2024/03/30 04:59:36;;;;;;;;;;;;;;;19.75;48.32;99580.00;2052195;28;2585;-66
2024/03/30 05:00:37;;;;;;;;;;;;;;;19.75;48.22;99574.97;2049205;28;6372;-66
2024/03/30 05:01:37;;;;;;;;;;;;;;;19.74;48.38;99579.22;2045210;28;1733;-66
2024/03/30 05:02:38;;;;;;;;;;;;;;;19.74;48.30;99573.50;2052988;28;1642;-66
2024/03/30 05:03:38;;;;;;;;;;;;;;;19.75;48.35;99577.13;2055804;28;1922;-66
2024/03/30 05:04:41;;;;;;;;;;;;;;;19.75;48.38;99580.00;2044633;28;1665;-66
2024/03/30 05:05:42;;;;;;;;;;;;;;;19.74;48.27;99578.50;2046666;28;1644;-66
2024/03/30 05:06:43;;;;;;;;;;;;;;;19.75;48.43;99574.25;2046059;28;1713;-66
2024/03/30 05:07:43;;;;;;;;;;;;;;;19.76;48.56;99575.69;2053444;28;1612;-66
2024/03/30 05:08:44;;;;;;;;;;;;;;;19.76;48.42;99575.69;2043595;28;2174;-66
2024/03/30 05:09:44;;;;;;;;;;;;;;;19.77;48.36;99568.53;2040778;28;2550;-66
2024/03/30 05:10:45;;;;;;;;;;;;;;;19.77;48.43;99565.66;2042032;28;2281;-66
2024/03/30 05:11:46;;;;;;;;;;;;;;;19.77;48.38;99566.41;2040230;28;2098;-66
2024/03/30 05:12:46;;;;;;;;;;;;;;;19.80;48.24;99570.06;2043055;28;2124;-66
2024/03/30 05:13:46;;;;;;;;;;;;;;;19.79;48.46;99575.09;2051717;28;2391;-66
2024/03/30 05:14:47;;;;;;;;;;;;;;;19.81;48.28;99577.25;2042017;28;2142;-66
2024/03/30 05:15:48;;;;;;;;;;;;;;;19.81;48.37;99565.78;2042848;28;2130;-66
2024/03/30 05:16:48;;;;;;;;;;;;;;;19.81;48.38;99571.53;2046849;28;1664;-66
2024/03/30 05:17:48;;;;;;;;;;;;;;;19.83;48.69;99562.97;2052566;28;2216;-66
2024/03/30 05:18:49;;;;;;;;;;;;;;;19.83;48.58;99568.72;2047477;28;2137;-66
2024/03/30 05:21:08;;;;;;;;;;;;;;;19.83;48.61;99568.72;2058237;28;2180;-66
2024/03/30 05:22:08;;;;;;;;;;;;;;;19.83;48.53;99566.56;2049859;28;2256;-66